createdAt,value
2022-09-07T00:00:58.479Z,90.19
2022-09-07T00:03:25.469Z,91.29
2022-09-07T00:05:52.553Z,91.48
2022-09-07T00:08:22.181Z,92.92
2022-09-07T00:11:02.714Z,91.67
2022-09-07T00:13:32.127Z,92.34
2022-09-07T00:15:59.501Z,91.08
2022-09-07T00:18:26.047Z,91.19
2022-09-07T00:21:04.766Z,90.60
2022-09-07T00:23:32.255Z,92.00
2022-09-07T00:26:03.471Z,92.31
2022-09-07T00:28:30.610Z,93.38
2022-09-07T00:30:57.377Z,92.63
2022-09-07T00:33:23.889Z,92.34
2022-09-07T00:35:50.353Z,91.53
2022-09-07T00:38:16.971Z,91.92
2022-09-07T00:40:43.688Z,92.16
2022-09-07T00:43:16.938Z,92.04
2022-09-07T00:45:43.844Z,92.30
2022-09-07T00:48:17.080Z,91.97
2022-09-07T00:50:52.133Z,92.16
2022-09-07T00:53:31.028Z,91.83
2022-09-07T00:55:58.843Z,91.69
2022-09-07T00:58:26.022Z,92.08
2022-09-07T01:00:52.499Z,91.20
2022-09-07T01:03:30.940Z,91.33
2022-09-07T01:06:06.420Z,91.06
2022-09-07T01:08:34.138Z,90.60
2022-09-07T01:11:01.075Z,90.35
2022-09-07T01:13:27.797Z,89.88
2022-09-07T01:16:03.285Z,89.29
2022-09-07T01:18:35.801Z,89.61
2022-09-07T01:21:34.571Z,88.96
2022-09-07T01:24:22.418Z,88.99
2022-09-07T01:27:06.580Z,88.54
2022-09-07T01:29:48.744Z,87.59
2022-09-07T01:32:34.685Z,87.15
2022-09-07T01:35:03.350Z,87.09
2022-09-07T01:38:08.587Z,85.44
2022-09-07T01:40:48.208Z,84.38
2022-09-07T01:43:54.123Z,84.15
2022-09-07T01:46:28.890Z,84.45
2022-09-07T01:49:03.194Z,83.59
2022-09-07T01:51:34.396Z,82.31
2022-09-07T01:54:19.027Z,81.22
2022-09-07T01:56:49.234Z,79.16
2022-09-07T01:59:28.493Z,77.93
2022-09-07T02:02:03.390Z,76.24
2022-09-07T02:04:45.281Z,75.34
2022-09-07T02:07:24.451Z,75.36
2022-09-07T02:09:56.785Z,78.61
2022-09-07T02:12:47.580Z,79.09
2022-09-07T02:15:28.712Z,80.30
2022-09-07T02:18:04.603Z,80.03
2022-09-07T02:20:39.423Z,80.86
2022-09-07T02:23:19.189Z,80.33
2022-09-07T02:25:52.361Z,80.92
2022-09-07T02:28:25.918Z,81.13
2022-09-07T02:30:52.474Z,81.12
2022-09-07T02:33:18.969Z,79.89
2022-09-07T02:35:45.874Z,79.63
2022-09-07T02:38:12.422Z,79.98
2022-09-07T02:40:38.954Z,80.22
2022-09-07T02:43:16.723Z,79.62
2022-09-07T02:45:58.191Z,79.60
2022-09-07T02:48:45.091Z,81.10
2022-09-07T02:51:35.421Z,80.84
2022-09-07T02:54:24.877Z,81.01
2022-09-07T02:57:05.477Z,81.41
2022-09-07T02:59:59.794Z,81.72
2022-09-07T03:02:35.224Z,83.09
2022-09-07T03:05:11.853Z,83.06
2022-09-07T03:07:45.197Z,84.48
2022-09-07T03:10:13.297Z,83.67
2022-09-07T03:12:42.134Z,84.90
2022-09-07T03:15:11.517Z,84.37
2022-09-07T03:17:41.150Z,84.49
2022-09-07T03:20:08.410Z,84.02
2022-09-07T03:22:34.904Z,84.04
2022-09-07T03:25:01.859Z,84.75
2022-09-07T03:27:28.638Z,84.55
2022-09-07T03:29:55.102Z,84.86
2022-09-07T03:32:21.491Z,84.61
2022-09-07T03:34:48.539Z,84.98
2022-09-07T03:37:15.177Z,84.98
2022-09-07T03:39:41.642Z,84.80
2022-09-07T03:42:08.251Z,84.74
2022-09-07T03:44:34.686Z,85.31
2022-09-07T03:47:01.147Z,86.55
2022-09-07T03:49:27.558Z,86.94
2022-09-07T03:51:53.969Z,85.10
2022-09-07T03:54:20.377Z,86.12
2022-09-07T03:56:46.775Z,86.75
2022-09-07T03:59:13.182Z,86.27
2022-09-07T04:01:40.084Z,86.49
2022-09-07T04:04:06.632Z,87.15
2022-09-07T04:06:33.190Z,85.95
2022-09-07T04:09:08.847Z,85.98
2022-09-07T04:11:35.735Z,86.76
2022-09-07T04:14:02.246Z,86.04
2022-09-07T04:16:29.086Z,85.18
2022-09-07T04:18:56.074Z,86.22
2022-09-07T04:21:23.918Z,86.34
2022-09-07T04:23:50.627Z,87.32
2022-09-07T04:26:22.519Z,87.41
2022-09-07T04:28:49.990Z,87.31
2022-09-07T04:31:18.652Z,87.10
2022-09-07T04:33:46.741Z,87.16
2022-09-07T04:36:13.449Z,88.36
2022-09-07T04:38:40.202Z,87.16
2022-09-07T04:41:09.858Z,87.08
2022-09-07T04:43:38.765Z,86.20
2022-09-07T04:46:14.074Z,85.79
2022-09-07T04:48:52.572Z,86.86
2022-09-07T04:51:20.118Z,87.35
2022-09-07T04:53:49.540Z,87.94
2022-09-07T04:56:17.160Z,88.86
2022-09-07T04:58:44.084Z,88.25
2022-09-07T05:01:12.338Z,88.14
2022-09-07T05:03:38.851Z,88.82
2022-09-07T05:06:06.644Z,89.11
2022-09-07T05:08:37.985Z,88.58
2022-09-07T05:11:04.656Z,88.41
2022-09-07T05:13:31.834Z,88.87
2022-09-07T05:15:59.825Z,88.51
2022-09-07T05:18:26.938Z,87.98
2022-09-07T05:20:53.473Z,87.95
2022-09-07T05:23:19.929Z,88.70
2022-09-07T05:25:47.062Z,88.56
2022-09-07T05:28:18.635Z,88.30
2022-09-07T05:36:20.566Z,88.80
2022-09-07T05:38:47.211Z,87.48
2022-09-07T05:41:19.303Z,88.62
2022-09-07T05:46:33.088Z,89.40
2022-09-07T05:49:00.664Z,89.59
2022-09-07T05:51:27.064Z,89.17
2022-09-07T05:53:53.645Z,88.92
2022-09-07T05:56:20.038Z,88.25
2022-09-07T05:58:49.501Z,86.23
2022-09-07T06:01:16.394Z,85.55
2022-09-07T06:03:44.434Z,83.25
2022-09-07T06:06:13.125Z,82.02
2022-09-07T06:08:44.371Z,81.44
2022-09-07T06:11:13.550Z,80.66
2022-09-07T06:13:40.545Z,78.37
2022-09-07T06:16:08.396Z,76.98
2022-09-07T06:18:36.680Z,76.73
2022-09-07T06:21:14.968Z,75.49
2022-09-07T06:23:42.682Z,75.74
2022-09-07T06:26:10.317Z,76.19
2022-09-07T06:28:39.510Z,74.98
2022-09-07T06:31:13.534Z,73.87
2022-09-07T06:33:44.650Z,73.48
2022-09-07T06:36:13.368Z,74.22
2022-09-07T06:38:40.507Z,74.22
2022-09-07T06:44:00.477Z,73.89
2022-09-07T06:49:13.383Z,73.46
2022-09-07T06:51:39.815Z,73.58
2022-09-07T06:56:52.744Z,72.41
2022-09-07T06:59:19.329Z,73.92
2022-09-07T07:01:45.814Z,72.01
2022-09-07T07:04:13.157Z,72.99
2022-09-07T07:06:40.355Z,73.81
2022-09-07T07:09:08.432Z,73.90
2022-09-07T07:11:37.151Z,72.99
2022-09-07T07:14:04.418Z,73.46
2022-09-07T07:16:31.248Z,73.35
2022-09-07T07:18:58.080Z,76.56
2022-09-07T07:21:24.541Z,77.50
2022-09-07T07:23:52.848Z,78.67
2022-09-07T07:26:22.937Z,78.32
2022-09-07T07:31:30.243Z,77.56
2022-09-07T07:33:56.909Z,78.46
2022-09-07T07:36:33.724Z,79.70
2022-09-07T07:39:01.335Z,79.23
2022-09-07T07:44:20.948Z,81.36
2022-09-07T07:47:00.446Z,81.59
2022-09-07T07:49:26.863Z,82.61
2022-09-07T07:54:43.421Z,81.84
2022-09-07T07:57:10.343Z,81.11
2022-09-07T07:59:36.892Z,81.95
2022-09-07T08:02:05.177Z,81.27
2022-09-07T08:04:33.229Z,79.83
2022-09-07T08:07:09.607Z,79.97
2022-09-07T08:09:44.418Z,80.06
2022-09-07T08:12:13.559Z,80.59
2022-09-07T08:14:43.281Z,79.02
2022-09-07T08:17:11.882Z,77.97
2022-09-07T08:19:40.385Z,76.55
2022-09-07T08:22:07.785Z,76.49
2022-09-07T08:24:34.636Z,76.63
2022-09-07T08:27:01.270Z,74.32
2022-09-07T08:29:31.292Z,71.22
2022-09-07T08:32:00.225Z,72.44
2022-09-07T08:34:28.676Z,73.70
2022-09-07T08:36:55.029Z,74.42
2022-09-07T08:39:22.548Z,74.08
2022-09-07T08:41:51.598Z,73.04
2022-09-07T08:44:33.231Z,72.10
2022-09-07T08:47:12.507Z,68.23
2022-09-07T08:49:53.745Z,69.23
2022-09-07T08:52:25.740Z,70.07
2022-09-07T08:55:23.238Z,70.06
2022-09-07T08:57:56.970Z,69.97
2022-09-07T09:00:25.398Z,69.58
2022-09-07T09:06:08.074Z,69.45
2022-09-07T09:08:49.055Z,69.14
2022-09-07T09:11:39.196Z,68.37
2022-09-07T09:14:39.406Z,68.97
2022-09-07T09:17:38.214Z,68.51
2022-09-07T09:20:30.887Z,67.36
2022-09-07T09:23:02.722Z,65.78
2022-09-07T09:25:36.594Z,65.76
2022-09-07T09:28:03.281Z,67.15
2022-09-07T09:30:29.775Z,67.61
2022-09-07T09:33:19.886Z,67.23
2022-09-07T09:36:00.475Z,66.50
2022-09-07T09:38:35.332Z,67.95
2022-09-07T09:41:14.959Z,67.98
2022-09-07T09:43:53.688Z,69.56
2022-09-07T09:46:28.052Z,66.33
2022-09-07T09:49:26.446Z,66.26
2022-09-07T09:54:44.897Z,66.76
2022-09-07T10:06:19.710Z,64.95
2022-09-07T10:09:02.129Z,63.83
2022-09-07T10:14:37.128Z,64.90
2022-09-07T10:17:22.974Z,65.61
2022-09-07T10:19:49.735Z,62.82
2022-09-07T10:22:36.480Z,63.89
2022-09-07T10:25:24.932Z,65.55
2022-09-07T10:28:15.644Z,61.69
2022-09-07T10:31:16.709Z,62.03
2022-09-07T10:34:26.654Z,61.14
2022-09-07T10:37:04.770Z,61.26
2022-09-07T10:39:41.717Z,60.72
2022-09-07T10:42:32.004Z,60.64
2022-09-07T10:45:11.871Z,63.18
2022-09-07T10:48:03.865Z,59.21
2022-09-07T10:50:45.751Z,56.91
2022-09-07T10:54:30.126Z,57.02
2022-09-07T10:56:59.306Z,56.13
2022-09-07T11:02:40.605Z,54.97
2022-09-07T11:05:37.104Z,53.63
2022-09-07T11:09:15.101Z,52.49
2022-09-07T11:12:02.271Z,47.89
2022-09-07T11:14:38.093Z,50.21
2022-09-07T11:17:14.568Z,51.72
2022-09-07T11:20:17.608Z,49.64
2022-09-07T11:22:54.926Z,49.77
2022-09-07T11:26:18.673Z,51.65
2022-09-07T11:31:47.521Z,50.35
2022-09-07T11:34:24.612Z,50.64
2022-09-07T11:37:07.161Z,48.68
2022-09-07T11:39:43.766Z,48.72
2022-09-07T11:45:05.086Z,48.73
2022-09-07T11:47:44.158Z,49.38
2022-09-07T11:50:21.110Z,46.75
2022-09-07T11:52:54.905Z,46.17
2022-09-07T11:55:28.713Z,44.99
2022-09-07T11:58:07.200Z,44.10
2022-09-07T12:00:48.330Z,47.09
2022-09-07T12:03:47.062Z,45.02
2022-09-07T12:06:19.584Z,46.31
2022-09-07T12:09:07.456Z,44.78
2022-09-07T12:12:13.147Z,45.26
2022-09-07T12:15:10.766Z,42.49
2022-09-07T12:17:41.910Z,45.43
2022-09-07T12:20:15.124Z,43.94
2022-09-07T12:23:06.570Z,43.89
2022-09-07T12:25:34.741Z,44.59
2022-09-07T12:28:01.790Z,48.75
2022-09-07T12:30:30.105Z,45.99
2022-09-07T12:32:57.994Z,42.94
2022-09-07T12:35:33.953Z,45.10
2022-09-07T12:38:18.592Z,44.40
2022-09-07T12:40:59.132Z,42.89
2022-09-07T12:43:28.448Z,43.98
2022-09-07T12:45:56.651Z,44.02
2022-09-07T12:49:08.298Z,42.11
2022-09-07T12:54:45.200Z,43.54
2022-09-07T12:57:31.152Z,44.53
2022-09-07T13:00:17.798Z,45.22
2022-09-07T13:02:47.120Z,43.22
2022-09-07T13:05:36.654Z,43.21
2022-09-07T13:08:36.228Z,45.90
2022-09-07T13:11:37.508Z,44.04
2022-09-07T13:14:23.328Z,45.01
2022-09-07T13:17:28.878Z,47.29
2022-09-07T13:20:17.053Z,44.54
2022-09-07T13:23:17.470Z,45.19
2022-09-07T13:25:47.335Z,46.26
2022-09-07T13:28:37.397Z,45.22
2022-09-07T13:31:21.838Z,45.22
2022-09-07T13:33:51.184Z,45.37
2022-09-07T13:36:44.628Z,44.81
2022-09-07T13:39:15.909Z,45.83
2022-09-07T13:41:51.256Z,42.04
2022-09-07T13:44:26.164Z,41.41
2022-09-07T13:47:14.166Z,42.45
2022-09-07T13:50:00.206Z,42.23
2022-09-07T13:52:40.854Z,38.78
2022-09-07T13:55:26.236Z,37.01
2022-09-07T13:58:02.540Z,38.15
2022-09-07T14:00:31.155Z,41.26
2022-09-07T14:03:04.542Z,43.72
2022-09-07T14:05:36.218Z,45.18
2022-09-07T14:08:04.780Z,44.17
2022-09-07T14:10:31.270Z,45.71
2022-09-07T14:13:11.658Z,42.17
2022-09-07T14:15:46.550Z,40.92
2022-09-07T14:18:16.295Z,42.77
2022-09-07T14:20:50.775Z,43.61
2022-09-07T14:23:32.707Z,45.40
2022-09-07T14:26:20.457Z,45.37
2022-09-07T14:28:50.486Z,44.06
2022-09-07T14:31:20.253Z,45.29
2022-09-07T14:33:59.351Z,45.09
2022-09-07T14:36:45.675Z,44.51
2022-09-07T14:39:18.960Z,44.11
2022-09-07T14:41:53.777Z,45.06
2022-09-07T14:44:31.699Z,44.52
2022-09-07T14:47:02.835Z,43.93
2022-09-07T14:49:37.595Z,43.28
2022-09-07T14:52:05.455Z,44.33
2022-09-07T14:54:34.223Z,44.60
2022-09-07T14:57:11.235Z,44.84
2022-09-07T14:59:48.438Z,46.47
2022-09-07T15:02:18.051Z,45.89
2022-09-07T15:05:08.926Z,44.39
2022-09-07T15:07:39.181Z,45.00
2022-09-07T15:10:25.534Z,44.66
2022-09-07T15:13:00.140Z,43.55
2022-09-07T15:15:39.553Z,43.85
2022-09-07T15:18:44.385Z,41.82
2022-09-07T15:21:13.017Z,42.07
2022-09-07T15:23:42.532Z,41.40
2022-09-07T15:27:01.964Z,42.69
2022-09-07T15:29:15.246Z,41.81
2022-09-07T15:31:47.279Z,43.22
2022-09-07T15:34:19.445Z,44.18
2022-09-07T15:37:00.282Z,44.70
2022-09-07T15:39:30.205Z,43.88
2022-09-07T15:41:57.824Z,46.05
2022-09-07T15:44:27.897Z,48.24
2022-09-07T15:49:51.335Z,46.40
2022-09-07T15:52:18.142Z,46.30
2022-09-07T15:54:44.650Z,45.58
2022-09-07T15:59:58.637Z,45.73
2022-09-07T16:05:11.775Z,45.43
2022-09-07T16:10:25.777Z,49.91
2022-09-07T16:15:45.262Z,54.30
2022-09-07T16:18:16.502Z,54.25
2022-09-07T16:20:47.949Z,54.90
2022-09-07T16:23:18.644Z,55.39
2022-09-07T16:25:57.046Z,53.40
2022-09-07T16:28:23.886Z,47.86
2022-09-07T16:30:50.297Z,47.64
2022-09-07T16:33:16.875Z,48.18
2022-09-07T16:35:43.356Z,48.70
2022-09-07T16:40:56.278Z,47.97
2022-09-07T16:43:22.959Z,48.65
2022-09-07T16:46:05.164Z,50.55
2022-09-07T16:48:33.161Z,54.48
2022-09-07T16:51:02.650Z,58.49
2022-09-07T16:53:31.778Z,59.53
2022-09-07T16:56:08.153Z,58.92
2022-09-07T16:58:47.662Z,57.49
2022-09-07T17:01:17.385Z,58.10
2022-09-07T17:03:44.748Z,58.67
2022-09-07T17:06:14.627Z,60.04
2022-09-07T17:08:42.261Z,60.87
2022-09-07T17:11:14.766Z,62.03
2022-09-07T17:13:42.248Z,62.95
2022-09-07T17:16:11.639Z,63.62
2022-09-07T17:21:31.240Z,63.18
2022-09-07T17:23:59.436Z,62.81
2022-09-07T17:26:27.536Z,62.01
2022-09-07T17:28:56.637Z,62.65
2022-09-07T17:34:19.138Z,64.01
2022-09-07T17:36:45.617Z,64.44
2022-09-07T17:39:17.230Z,65.36
2022-09-07T17:41:44.963Z,66.00
2022-09-07T17:44:11.612Z,65.65
2022-09-07T17:46:39.416Z,66.32
2022-09-07T17:49:08.041Z,66.72
2022-09-07T17:51:35.752Z,65.12
2022-09-07T17:54:09.569Z,66.15
2022-09-07T17:56:37.369Z,65.00
2022-09-07T18:01:50.702Z,65.77
2022-09-07T18:04:17.297Z,66.38
2022-09-07T18:06:43.760Z,66.91
2022-09-07T18:09:10.832Z,67.62
2022-09-07T18:11:46.254Z,68.39
2022-09-07T18:14:14.598Z,68.12
2022-09-07T18:16:57.761Z,68.71
2022-09-07T18:19:26.193Z,69.39
2022-09-07T18:21:53.654Z,70.17
2022-09-07T18:24:22.883Z,70.43
2022-09-07T18:26:52.738Z,70.08
2022-09-07T18:29:31.220Z,71.52
2022-09-07T18:32:00.417Z,71.41
2022-09-07T18:34:28.634Z,70.15
2022-09-07T18:36:55.346Z,69.75
2022-09-07T18:39:21.971Z,69.64
2022-09-07T18:41:48.345Z,70.52
2022-09-07T18:47:01.121Z,70.54
2022-09-07T18:49:27.555Z,70.98
2022-09-07T18:54:41.396Z,71.37
2022-09-07T18:57:20.998Z,71.22
2022-09-07T18:59:52.031Z,71.45
2022-09-07T19:02:19.857Z,72.49
2022-09-07T19:07:35.760Z,72.87
2022-09-07T19:10:06.134Z,73.29
2022-09-07T19:12:32.537Z,73.19
2022-09-07T19:14:58.916Z,72.59
2022-09-07T19:17:25.345Z,73.73
2022-09-07T19:19:52.748Z,74.10
2022-09-07T19:22:19.133Z,74.29
2022-09-07T19:24:45.795Z,74.55
2022-09-07T19:27:12.275Z,75.08
2022-09-07T19:29:38.983Z,74.75
2022-09-07T19:32:06.622Z,73.77
2022-09-07T19:34:41.787Z,73.26
2022-09-07T19:37:19.361Z,73.10
2022-09-07T19:39:45.949Z,74.45
2022-09-07T19:42:12.397Z,75.04
2022-09-07T19:44:39.887Z,75.43
2022-09-07T19:47:06.942Z,75.47
2022-09-07T19:49:35.509Z,75.84
2022-09-07T19:52:02.135Z,76.11
2022-09-07T19:54:33.857Z,76.17
2022-09-07T19:57:03.747Z,75.69
2022-09-07T19:59:30.285Z,76.22
2022-09-07T20:01:56.746Z,76.95
2022-09-07T20:04:23.581Z,78.27
2022-09-07T20:06:51.418Z,76.96
2022-09-07T20:09:19.789Z,76.61
2022-09-07T20:11:47.792Z,76.40
2022-09-07T20:14:15.291Z,73.66
2022-09-07T20:16:41.979Z,73.60
2022-09-07T20:19:17.271Z,69.77
2022-09-07T20:21:43.684Z,70.09
2022-09-07T20:24:14.366Z,69.50
2022-09-07T20:26:40.855Z,69.98
2022-09-07T20:31:53.946Z,75.67
2022-09-07T20:34:20.610Z,77.77
2022-09-07T20:36:49.556Z,78.11
2022-09-07T20:39:16.812Z,81.02
2022-09-07T20:41:43.179Z,82.07
2022-09-07T20:44:09.731Z,82.58
2022-09-07T20:46:36.375Z,82.10
2022-09-07T20:49:14.062Z,81.81
2022-09-07T20:51:40.533Z,82.02
2022-09-07T20:54:07.202Z,82.62
2022-09-07T20:56:33.656Z,82.68
2022-09-07T20:59:02.435Z,82.88
2022-09-07T21:01:36.630Z,83.93
2022-09-07T21:04:04.092Z,84.76
2022-09-07T21:06:34.623Z,85.18
2022-09-07T21:09:01.537Z,84.93
2022-09-07T21:11:33.965Z,84.44
2022-09-07T21:14:06.205Z,83.93
2022-09-07T21:16:33.696Z,80.68
2022-09-07T21:19:02.366Z,82.57
2022-09-07T21:21:36.628Z,81.66
2022-09-07T21:24:05.823Z,79.20
2022-09-07T21:26:32.717Z,80.70
2022-09-07T21:29:05.042Z,81.31
2022-09-07T21:31:33.731Z,80.79
2022-09-07T21:34:02.097Z,81.14
2022-09-07T21:36:28.520Z,81.24
2022-09-07T21:38:55.791Z,80.69
2022-09-07T21:41:24.258Z,79.53
2022-09-07T21:43:57.757Z,77.84
2022-09-07T21:46:25.257Z,79.98
2022-09-07T21:48:51.680Z,79.64
2022-09-07T21:51:18.446Z,79.89
2022-09-07T21:53:44.845Z,79.81
2022-09-07T21:56:14.272Z,78.68
2022-09-07T21:58:41.387Z,78.69
2022-09-07T22:01:11.182Z,79.55
2022-09-07T22:04:00.080Z,80.79
2022-09-07T22:06:27.830Z,82.73
2022-09-07T22:08:55.737Z,82.10
2022-09-07T22:11:23.821Z,80.29
2022-09-07T22:13:54.519Z,78.51
2022-09-07T22:16:21.042Z,78.91
2022-09-07T22:18:48.376Z,79.32
2022-09-07T22:21:21.248Z,78.02
2022-09-07T22:23:50.371Z,78.09
2022-09-07T22:26:22.191Z,78.52
2022-09-07T22:28:49.133Z,80.61
2022-09-07T22:31:24.337Z,81.72
2022-09-07T22:33:52.376Z,81.85
2022-09-07T22:36:21.355Z,84.27
2022-09-07T22:38:50.693Z,85.88
2022-09-07T22:41:19.335Z,87.51
2022-09-07T22:43:46.989Z,87.24
2022-09-07T22:46:14.813Z,87.65
2022-09-07T22:48:41.833Z,87.63
2022-09-07T22:51:09.618Z,86.71
2022-09-07T22:53:38.374Z,85.18
2022-09-07T22:56:09.606Z,85.98
2022-09-07T22:58:37.266Z,84.87
2022-09-07T23:01:05.134Z,84.88
2022-09-07T23:03:34.629Z,85.95
2022-09-07T23:06:01.623Z,86.55
2022-09-07T23:08:28.157Z,86.75
2022-09-07T23:10:54.682Z,86.44
2022-09-07T23:13:22.233Z,86.32
2022-09-07T23:15:48.893Z,86.24
2022-09-07T23:18:17.620Z,87.68
2022-09-07T23:20:44.452Z,89.35
2022-09-07T23:23:13.254Z,88.01
2022-09-07T23:25:41.258Z,86.99
2022-09-07T23:28:11.886Z,88.65
2022-09-07T23:30:40.519Z,89.56
2022-09-07T23:33:11.922Z,89.26
2022-09-07T23:35:38.320Z,89.38
2022-09-07T23:38:04.934Z,89.60
2022-09-07T23:40:32.639Z,88.99
2022-09-07T23:42:59.515Z,88.13
2022-09-07T23:45:26.245Z,87.57
2022-09-07T23:47:53.073Z,88.14
2022-09-07T23:50:20.017Z,88.36
2022-09-07T23:52:46.435Z,85.50
2022-09-07T23:55:13.275Z,85.62
2022-09-07T23:57:39.706Z,85.87
